sensor_id;sensor_type;location;lat;lon;timestamp;temperature;humidity
38866;DHT22;62686;48.984;8.394;2024-03-02T00:02:19;2.30;99.90
38866;DHT22;62686;48.984;8.394;2024-03-02T00:04:48;2.40;99.90
38866;DHT22;62686;48.984;8.394;2024-03-02T00:07:16;2.40;99.90
38866;DHT22;62686;48.984;8.394;2024-03-02T00:09:46;2.50;99.90
38866;DHT22;62686;48.984;8.394;2024-03-02T00:12:15;2.50;99.90
38866;DHT22;62686;48.984;8.394;2024-03-02T00:14:44;2.40;99.90
38866;DHT22;62686;48.984;8.394;2024-03-02T00:17:21;2.40;99.90
38866;DHT22;62686;48.984;8.394;2024-03-02T00:19:52;2.40;99.90
38866;DHT22;62686;48.984;8.394;2024-03-02T00:22:21;2.30;99.90
38866;DHT22;62686;48.984;8.394;2024-03-02T00:24:50;2.20;99.90
38866;DHT22;62686;48.984;8.394;2024-03-02T00:27:20;2.20;99.90
38866;DHT22;62686;48.984;8.394;2024-03-02T00:29:48;2.10;99.90
38866;DHT22;62686;48.984;8.394;2024-03-02T00:32:17;2.10;99.90
38866;DHT22;62686;48.984;8.394;2024-03-02T00:34:45;2.10;99.90
38866;DHT22;62686;48.984;8.394;2024-03-02T00:37:14;2.10;99.90
38866;DHT22;62686;48.984;8.394;2024-03-02T00:39:42;2.00;99.90
38866;DHT22;62686;48.984;8.394;2024-03-02T00:42:12;2.10;99.90
38866;DHT22;62686;48.984;8.394;2024-03-02T00:44:40;2.10;99.90
38866;DHT22;62686;48.984;8.394;2024-03-02T00:47:09;2.10;99.90
38866;DHT22;62686;48.984;8.394;2024-03-02T00:49:37;2.00;99.90
38866;DHT22;62686;48.984;8.394;2024-03-02T00:52:07;1.90;99.90
38866;DHT22;62686;48.984;8.394;2024-03-02T00:54:35;1.90;99.90
38866;DHT22;62686;48.984;8.394;2024-03-02T00:57:04;1.90;99.90
38866;DHT22;62686;48.984;8.394;2024-03-02T00:59:34;1.80;99.90
38866;DHT22;62686;48.984;8.394;2024-03-02T01:02:03;1.90;99.90
38866;DHT22;62686;48.984;8.394;2024-03-02T01:04:31;1.90;99.90
38866;DHT22;62686;48.984;8.394;2024-03-02T01:07:00;2.20;99.90
38866;DHT22;62686;48.984;8.394;2024-03-02T01:09:28;2.20;99.90
38866;DHT22;62686;48.984;8.394;2024-03-02T01:14:34;2.20;99.90
38866;DHT22;62686;48.984;8.394;2024-03-02T01:22:20;1.90;99.90
38866;DHT22;62686;48.984;8.394;2024-03-02T01:24:52;1.80;99.90
38866;DHT22;62686;48.984;8.394;2024-03-02T01:27:20;1.70;99.90
38866;DHT22;62686;48.984;8.394;2024-03-02T01:29:50;1.60;99.90
38866;DHT22;62686;48.984;8.394;2024-03-02T01:38:08;1.60;99.90
38866;DHT22;62686;48.984;8.394;2024-03-02T01:40:37;1.60;99.90
38866;DHT22;62686;48.984;8.394;2024-03-02T01:48:31;1.40;99.90
38866;DHT22;62686;48.984;8.394;2024-03-02T01:51:01;1.40;99.90
38866;DHT22;62686;48.984;8.394;2024-03-02T01:53:30;1.40;99.90
38866;DHT22;62686;48.984;8.394;2024-03-02T01:55:58;1.30;99.90
38866;DHT22;62686;48.984;8.394;2024-03-02T02:03:47;1.30;99.90
38866;DHT22;62686;48.984;8.394;2024-03-02T02:06:16;1.20;99.90
38866;DHT22;62686;48.984;8.394;2024-03-02T02:14:50;1.20;99.90
38866;DHT22;62686;48.984;8.394;2024-03-02T02:17:18;1.20;99.90
38866;DHT22;62686;48.984;8.394;2024-03-02T02:25:13;1.20;99.90
38866;DHT22;62686;48.984;8.394;2024-03-02T02:27:42;1.10;99.90
38866;DHT22;62686;48.984;8.394;2024-03-02T02:30:11;1.10;99.90
38866;DHT22;62686;48.984;8.394;2024-03-02T02:32:40;1.10;99.90
38866;DHT22;62686;48.984;8.394;2024-03-02T02:40:28;0.90;99.90
38866;DHT22;62686;48.984;8.394;2024-03-02T02:42:57;0.90;99.90
38866;DHT22;62686;48.984;8.394;2024-03-02T02:45:26;0.80;99.90
38866;DHT22;62686;48.984;8.394;2024-03-02T02:50:37;0.80;99.90
38866;DHT22;62686;48.984;8.394;2024-03-02T03:04:15;0.70;99.90
38866;DHT22;62686;48.984;8.394;2024-03-02T03:31:15;0.70;99.90
38866;DHT22;62686;48.984;8.394;2024-03-02T03:33:43;0.70;99.90
38866;DHT22;62686;48.984;8.394;2024-03-02T03:36:12;0.70;99.90
38866;DHT22;62686;48.984;8.394;2024-03-02T03:38:40;0.70;99.90
38866;DHT22;62686;48.984;8.394;2024-03-02T03:41:11;0.70;99.90
38866;DHT22;62686;48.984;8.394;2024-03-02T03:43:40;0.70;99.90
38866;DHT22;62686;48.984;8.394;2024-03-02T03:46:08;0.70;99.90
38866;DHT22;62686;48.984;8.394;2024-03-02T03:48:38;0.70;99.90
38866;DHT22;62686;48.984;8.394;2024-03-02T03:51:06;0.60;99.90
38866;DHT22;62686;48.984;8.394;2024-03-02T03:53:35;0.60;99.90
38866;DHT22;62686;48.984;8.394;2024-03-02T03:56:04;0.60;99.90
38866;DHT22;62686;48.984;8.394;2024-03-02T03:58:32;0.60;99.90
38866;DHT22;62686;48.984;8.394;2024-03-02T04:01:01;0.60;99.90
38866;DHT22;62686;48.984;8.394;2024-03-02T04:03:29;0.50;99.90
38866;DHT22;62686;48.984;8.394;2024-03-02T04:05:59;0.50;99.90
38866;DHT22;62686;48.984;8.394;2024-03-02T04:08:28;0.50;99.90
38866;DHT22;62686;48.984;8.394;2024-03-02T04:10:56;0.50;99.90
38866;DHT22;62686;48.984;8.394;2024-03-02T04:13:25;0.70;99.90
38866;DHT22;62686;48.984;8.394;2024-03-02T04:15:53;0.70;99.90
38866;DHT22;62686;48.984;8.394;2024-03-02T04:18:21;0.70;99.90
38866;DHT22;62686;48.984;8.394;2024-03-02T04:20:50;0.60;99.90
38866;DHT22;62686;48.984;8.394;2024-03-02T04:23:21;0.50;99.90
38866;DHT22;62686;48.984;8.394;2024-03-02T04:25:49;0.60;99.90
38866;DHT22;62686;48.984;8.394;2024-03-02T04:28:17;0.50;99.90
38866;DHT22;62686;48.984;8.394;2024-03-02T04:30:46;0.50;99.90
38866;DHT22;62686;48.984;8.394;2024-03-02T04:33:14;0.40;99.90
38866;DHT22;62686;48.984;8.394;2024-03-02T04:35:42;0.50;99.90
38866;DHT22;62686;48.984;8.394;2024-03-02T04:38:11;0.40;99.90
38866;DHT22;62686;48.984;8.394;2024-03-02T04:40:40;0.30;99.90
38866;DHT22;62686;48.984;8.394;2024-03-02T04:43:09;0.30;99.90
38866;DHT22;62686;48.984;8.394;2024-03-02T04:45:41;0.30;99.90
38866;DHT22;62686;48.984;8.394;2024-03-02T04:48:10;0.30;99.90
38866;DHT22;62686;48.984;8.394;2024-03-02T04:50:39;0.20;99.90
38866;DHT22;62686;48.984;8.394;2024-03-02T04:53:08;0.20;99.90
38866;DHT22;62686;48.984;8.394;2024-03-02T04:55:36;0.20;99.90
38866;DHT22;62686;48.984;8.394;2024-03-02T04:58:20;0.20;99.90
38866;DHT22;62686;48.984;8.394;2024-03-02T05:00:48;0.20;99.90
38866;DHT22;62686;48.984;8.394;2024-03-02T05:03:17;0.30;99.90
38866;DHT22;62686;48.984;8.394;2024-03-02T05:05:45;0.30;99.90
38866;DHT22;62686;48.984;8.394;2024-03-02T05:08:13;0.30;99.90
38866;DHT22;62686;48.984;8.394;2024-03-02T05:10:43;0.20;99.90
38866;DHT22;62686;48.984;8.394;2024-03-02T05:13:12;0.20;99.90
38866;DHT22;62686;48.984;8.394;2024-03-02T05:15:41;0.30;99.90
38866;DHT22;62686;48.984;8.394;2024-03-02T05:18:10;0.30;99.90
38866;DHT22;62686;48.984;8.394;2024-03-02T05:20:38;0.30;99.90
38866;DHT22;62686;48.984;8.394;2024-03-02T05:23:06;0.20;99.90
38866;DHT22;62686;48.984;8.394;2024-03-02T05:25:35;0.20;99.90
38866;DHT22;62686;48.984;8.394;2024-03-02T05:28:04;0.20;99.90
38866;DHT22;62686;48.984;8.394;2024-03-02T05:30:33;0.10;99.90
38866;DHT22;62686;48.984;8.394;2024-03-02T05:33:03;-0.10;99.90
38866;DHT22;62686;48.984;8.394;2024-03-02T05:35:31;-0.10;99.90
38866;DHT22;62686;48.984;8.394;2024-03-02T05:38:01;-0.20;99.90
38866;DHT22;62686;48.984;8.394;2024-03-02T05:40:32;-0.30;99.90
38866;DHT22;62686;48.984;8.394;2024-03-02T05:43:04;-0.30;99.90
38866;DHT22;62686;48.984;8.394;2024-03-02T05:45:33;-0.40;99.90
38866;DHT22;62686;48.984;8.394;2024-03-02T05:48:03;-0.40;99.90
38866;DHT22;62686;48.984;8.394;2024-03-02T05:50:32;-0.40;99.90
38866;DHT22;62686;48.984;8.394;2024-03-02T05:53:03;-0.40;99.90
38866;DHT22;62686;48.984;8.394;2024-03-02T05:55:33;-0.40;99.90
38866;DHT22;62686;48.984;8.394;2024-03-02T05:58:03;-0.40;99.90
38866;DHT22;62686;48.984;8.394;2024-03-02T06:00:47;-0.40;99.90
38866;DHT22;62686;48.984;8.394;2024-03-02T06:03:19;-0.50;99.90
38866;DHT22;62686;48.984;8.394;2024-03-02T06:05:48;-0.50;99.90
38866;DHT22;62686;48.984;8.394;2024-03-02T06:08:18;-0.40;99.90
38866;DHT22;62686;48.984;8.394;2024-03-02T06:10:47;-0.30;99.90
38866;DHT22;62686;48.984;8.394;2024-03-02T06:13:15;-0.30;99.90
38866;DHT22;62686;48.984;8.394;2024-03-02T06:15:46;-0.30;99.90
38866;DHT22;62686;48.984;8.394;2024-03-02T06:18:18;-0.30;99.90
38866;DHT22;62686;48.984;8.394;2024-03-02T06:20:48;-0.30;99.90
38866;DHT22;62686;48.984;8.394;2024-03-02T06:23:16;-0.30;99.90
38866;DHT22;62686;48.984;8.394;2024-03-02T06:25:45;-0.20;99.90
38866;DHT22;62686;48.984;8.394;2024-03-02T06:28:13;-0.10;99.90
38866;DHT22;62686;48.984;8.394;2024-03-02T06:30:42;0.00;99.90
38866;DHT22;62686;48.984;8.394;2024-03-02T06:33:12;0.00;99.90
38866;DHT22;62686;48.984;8.394;2024-03-02T06:35:41;0.20;99.90
38866;DHT22;62686;48.984;8.394;2024-03-02T06:38:10;0.30;99.90
38866;DHT22;62686;48.984;8.394;2024-03-02T06:40:38;0.30;99.90
38866;DHT22;62686;48.984;8.394;2024-03-02T06:43:07;0.40;99.90
38866;DHT22;62686;48.984;8.394;2024-03-02T06:45:36;0.50;99.90
38866;DHT22;62686;48.984;8.394;2024-03-02T06:48:05;0.50;99.90
38866;DHT22;62686;48.984;8.394;2024-03-02T06:50:34;0.60;99.90
38866;DHT22;62686;48.984;8.394;2024-03-02T06:53:04;0.60;99.90
38866;DHT22;62686;48.984;8.394;2024-03-02T06:55:32;0.60;99.90
38866;DHT22;62686;48.984;8.394;2024-03-02T06:58:01;0.70;99.90
38866;DHT22;62686;48.984;8.394;2024-03-02T07:00:29;0.70;99.90
38866;DHT22;62686;48.984;8.394;2024-03-02T07:02:58;0.70;99.90
38866;DHT22;62686;48.984;8.394;2024-03-02T07:05:26;0.70;99.90
38866;DHT22;62686;48.984;8.394;2024-03-02T07:07:55;0.70;99.90
38866;DHT22;62686;48.984;8.394;2024-03-02T07:10:25;0.60;99.90
38866;DHT22;62686;48.984;8.394;2024-03-02T07:12:53;0.70;99.90
38866;DHT22;62686;48.984;8.394;2024-03-02T07:18:00;0.80;99.90
38866;DHT22;62686;48.984;8.394;2024-03-02T07:20:29;1.00;99.90
38866;DHT22;62686;48.984;8.394;2024-03-02T07:22:58;1.10;99.90
38866;DHT22;62686;48.984;8.394;2024-03-02T07:25:28;1.30;99.90
38866;DHT22;62686;48.984;8.394;2024-03-02T07:27:59;1.40;99.90
38866;DHT22;62686;48.984;8.394;2024-03-02T07:30:28;1.60;99.90
38866;DHT22;62686;48.984;8.394;2024-03-02T07:32:57;1.80;99.90
38866;DHT22;62686;48.984;8.394;2024-03-02T07:35:25;2.00;99.90
38866;DHT22;62686;48.984;8.394;2024-03-02T07:37:54;2.30;99.90
38866;DHT22;62686;48.984;8.394;2024-03-02T07:48:31;3.40;99.90
38866;DHT22;62686;48.984;8.394;2024-03-02T07:50:59;3.70;99.90
38866;DHT22;62686;48.984;8.394;2024-03-02T07:53:29;4.00;99.90
38866;DHT22;62686;48.984;8.394;2024-03-02T07:55:57;4.20;99.90
38866;DHT22;62686;48.984;8.394;2024-03-02T07:58:29;4.40;99.90
38866;DHT22;62686;48.984;8.394;2024-03-02T08:01:00;4.60;99.90
38866;DHT22;62686;48.984;8.394;2024-03-02T08:03:30;4.70;99.90
38866;DHT22;62686;48.984;8.394;2024-03-02T08:06:01;4.80;99.90
38866;DHT22;62686;48.984;8.394;2024-03-02T08:08:30;5.00;99.90
38866;DHT22;62686;48.984;8.394;2024-03-02T08:10:58;5.00;99.90
38866;DHT22;62686;48.984;8.394;2024-03-02T08:13:27;5.10;99.90
38866;DHT22;62686;48.984;8.394;2024-03-02T08:15:57;5.00;99.90
38866;DHT22;62686;48.984;8.394;2024-03-02T08:18:25;5.10;99.90
38866;DHT22;62686;48.984;8.394;2024-03-02T08:20:55;5.20;99.90
38866;DHT22;62686;48.984;8.394;2024-03-02T08:23:23;5.30;99.90
38866;DHT22;62686;48.984;8.394;2024-03-02T08:25:52;5.40;99.90
38866;DHT22;62686;48.984;8.394;2024-03-02T08:28:20;5.60;99.90
38866;DHT22;62686;48.984;8.394;2024-03-02T08:30:48;5.70;99.90
38866;DHT22;62686;48.984;8.394;2024-03-02T08:33:17;5.70;99.90
38866;DHT22;62686;48.984;8.394;2024-03-02T08:35:45;5.90;99.90
38866;DHT22;62686;48.984;8.394;2024-03-02T08:38:15;6.00;99.90
38866;DHT22;62686;48.984;8.394;2024-03-02T08:40:44;6.20;99.90
38866;DHT22;62686;48.984;8.394;2024-03-02T08:43:13;6.50;99.90
38866;DHT22;62686;48.984;8.394;2024-03-02T08:45:42;6.70;99.90
38866;DHT22;62686;48.984;8.394;2024-03-02T08:48:10;7.00;99.90
38866;DHT22;62686;48.984;8.394;2024-03-02T08:50:39;7.60;99.90
38866;DHT22;62686;48.984;8.394;2024-03-02T08:53:07;8.50;99.90
38866;DHT22;62686;48.984;8.394;2024-03-02T08:55:37;9.30;99.90
38866;DHT22;62686;48.984;8.394;2024-03-02T08:58:06;9.90;99.90
38866;DHT22;62686;48.984;8.394;2024-03-02T09:00:34;10.20;99.90
38866;DHT22;62686;48.984;8.394;2024-03-02T09:03:03;10.50;99.90
38866;DHT22;62686;48.984;8.394;2024-03-02T09:05:32;10.80;99.90
38866;DHT22;62686;48.984;8.394;2024-03-02T09:08:00;11.20;99.90
38866;DHT22;62686;48.984;8.394;2024-03-02T09:10:30;12.00;99.90
38866;DHT22;62686;48.984;8.394;2024-03-02T09:13:00;12.10;99.90
38866;DHT22;62686;48.984;8.394;2024-03-02T09:15:29;11.90;99.90
38866;DHT22;62686;48.984;8.394;2024-03-02T09:17:59;11.80;99.90
38866;DHT22;62686;48.984;8.394;2024-03-02T09:39:22;13.20;99.90
38866;DHT22;62686;48.984;8.394;2024-03-02T09:41:53;13.70;99.90
38866;DHT22;62686;48.984;8.394;2024-03-02T10:13:25;13.60;99.90
38866;DHT22;62686;48.984;8.394;2024-03-02T10:15:55;13.80;99.90
38866;DHT22;62686;48.984;8.394;2024-03-02T10:18:26;13.90;99.90
38866;DHT22;62686;48.984;8.394;2024-03-02T10:28:56;14.10;99.90
38866;DHT22;62686;48.984;8.394;2024-03-02T10:31:28;13.70;99.90
38866;DHT22;62686;48.984;8.394;2024-03-02T10:47:21;13.70;99.90
38866;DHT22;62686;48.984;8.394;2024-03-02T10:49:51;13.90;99.90
38866;DHT22;62686;48.984;8.394;2024-03-02T10:57:42;14.20;99.90
38866;DHT22;62686;48.984;8.394;2024-03-02T11:00:14;14.30;99.90
38866;DHT22;62686;48.984;8.394;2024-03-02T11:02:50;14.20;99.90
38866;DHT22;62686;48.984;8.394;2024-03-02T11:10:49;14.80;99.90
38866;DHT22;62686;48.984;8.394;2024-03-02T11:15:59;15.10;99.90
38866;DHT22;62686;48.984;8.394;2024-03-02T11:29:43;15.20;99.90
38866;DHT22;62686;48.984;8.394;2024-03-02T11:34:49;15.90;99.90
38866;DHT22;62686;48.984;8.394;2024-03-02T11:37:19;16.40;99.90
38866;DHT22;62686;48.984;8.394;2024-03-02T11:50:31;19.90;99.90
38866;DHT22;62686;48.984;8.394;2024-03-02T11:55:38;22.10;99.10
38866;DHT22;62686;48.984;8.394;2024-03-02T11:58:08;22.90;96.60
38866;DHT22;62686;48.984;8.394;2024-03-02T12:00:36;23.30;96.50
38866;DHT22;62686;48.984;8.394;2024-03-02T12:17:13;25.50;86.60
38866;DHT22;62686;48.984;8.394;2024-03-02T12:22:24;24.80;84.10
38866;DHT22;62686;48.984;8.394;2024-03-02T12:45:35;24.80;86.70
38866;DHT22;62686;48.984;8.394;2024-03-02T12:48:05;24.50;85.50
38866;DHT22;62686;48.984;8.394;2024-03-02T12:50:33;24.00;86.40
38866;DHT22;62686;48.984;8.394;2024-03-02T12:53:02;23.90;84.90
38866;DHT22;62686;48.984;8.394;2024-03-02T12:55:31;23.60;86.40
38866;DHT22;62686;48.984;8.394;2024-03-02T12:58:00;23.10;84.60
38866;DHT22;62686;48.984;8.394;2024-03-02T13:00:30;22.00;85.00
38866;DHT22;62686;48.984;8.394;2024-03-02T13:03:03;21.90;89.00
38866;DHT22;62686;48.984;8.394;2024-03-02T13:05:32;21.60;88.60
38866;DHT22;62686;48.984;8.394;2024-03-02T13:08:00;21.30;88.00
38866;DHT22;62686;48.984;8.394;2024-03-02T13:10:30;21.20;88.10
38866;DHT22;62686;48.984;8.394;2024-03-02T13:12:59;21.10;89.90
38866;DHT22;62686;48.984;8.394;2024-03-02T13:15:28;21.40;90.60
38866;DHT22;62686;48.984;8.394;2024-03-02T13:17:59;21.70;90.10
38866;DHT22;62686;48.984;8.394;2024-03-02T13:20:31;21.90;91.10
38866;DHT22;62686;48.984;8.394;2024-03-02T13:23:00;22.10;90.20
38866;DHT22;62686;48.984;8.394;2024-03-02T13:25:28;22.10;89.30
38866;DHT22;62686;48.984;8.394;2024-03-02T13:27:59;22.50;88.90
38866;DHT22;62686;48.984;8.394;2024-03-02T13:30:27;23.00;89.40
38866;DHT22;62686;48.984;8.394;2024-03-02T13:32:56;22.80;88.40
38866;DHT22;62686;48.984;8.394;2024-03-02T13:35:24;22.90;89.60
38866;DHT22;62686;48.984;8.394;2024-03-02T13:37:54;22.20;89.20
38866;DHT22;62686;48.984;8.394;2024-03-02T13:40:22;21.60;89.70
38866;DHT22;62686;48.984;8.394;2024-03-02T13:42:51;21.30;90.80
38866;DHT22;62686;48.984;8.394;2024-03-02T13:45:20;21.10;90.70
38866;DHT22;62686;48.984;8.394;2024-03-02T13:47:49;20.90;90.90
38866;DHT22;62686;48.984;8.394;2024-03-02T13:50:18;20.90;90.60
38866;DHT22;62686;48.984;8.394;2024-03-02T13:52:46;21.20;89.90
38866;DHT22;62686;48.984;8.394;2024-03-02T13:55:16;21.00;90.00
38866;DHT22;62686;48.984;8.394;2024-03-02T13:57:46;20.90;91.70
38866;DHT22;62686;48.984;8.394;2024-03-02T14:00:16;20.70;91.70
38866;DHT22;62686;48.984;8.394;2024-03-02T14:02:45;21.10;92.10
38866;DHT22;62686;48.984;8.394;2024-03-02T14:05:16;21.10;92.80
38866;DHT22;62686;48.984;8.394;2024-03-02T14:13:11;20.50;92.10
38866;DHT22;62686;48.984;8.394;2024-03-02T14:18:23;20.70;91.30
38866;DHT22;62686;48.984;8.394;2024-03-02T14:20:52;20.60;91.80
38866;DHT22;62686;48.984;8.394;2024-03-02T17:50:26;11.90;99.90
38866;DHT22;62686;48.984;8.394;2024-03-02T17:52:54;11.90;99.90
38866;DHT22;62686;48.984;8.394;2024-03-02T17:55:23;11.80;99.90
38866;DHT22;62686;48.984;8.394;2024-03-02T17:57:51;11.80;99.90
38866;DHT22;62686;48.984;8.394;2024-03-02T18:00:20;11.70;99.90
38866;DHT22;62686;48.984;8.394;2024-03-02T18:02:48;11.70;99.90
38866;DHT22;62686;48.984;8.394;2024-03-02T18:05:17;11.70;99.90
38866;DHT22;62686;48.984;8.394;2024-03-02T18:07:46;11.60;99.90
38866;DHT22;62686;48.984;8.394;2024-03-02T18:10:15;11.60;99.90
38866;DHT22;62686;48.984;8.394;2024-03-02T18:12:43;11.50;99.90
38866;DHT22;62686;48.984;8.394;2024-03-02T18:15:13;11.40;99.90
38866;DHT22;62686;48.984;8.394;2024-03-02T18:17:41;11.30;99.90
38866;DHT22;62686;48.984;8.394;2024-03-02T18:20:10;11.20;99.90
38866;DHT22;62686;48.984;8.394;2024-03-02T18:22:39;11.30;99.90
38866;DHT22;62686;48.984;8.394;2024-03-02T18:25:09;11.60;99.90
38866;DHT22;62686;48.984;8.394;2024-03-02T18:27:38;11.70;99.90
38866;DHT22;62686;48.984;8.394;2024-03-02T18:30:07;11.90;99.90
38866;DHT22;62686;48.984;8.394;2024-03-02T18:32:38;12.40;99.90
38866;DHT22;62686;48.984;8.394;2024-03-02T18:35:08;12.40;99.90
38866;DHT22;62686;48.984;8.394;2024-03-02T18:37:37;12.30;99.90
38866;DHT22;62686;48.984;8.394;2024-03-02T18:40:06;12.20;99.90
38866;DHT22;62686;48.984;8.394;2024-03-02T18:42:39;12.20;99.90
38866;DHT22;62686;48.984;8.394;2024-03-02T18:45:08;12.30;99.90
38866;DHT22;62686;48.984;8.394;2024-03-02T18:47:36;12.20;99.90
38866;DHT22;62686;48.984;8.394;2024-03-02T18:50:06;12.20;99.90
38866;DHT22;62686;48.984;8.394;2024-03-02T18:52:36;12.00;99.90
38866;DHT22;62686;48.984;8.394;2024-03-02T18:55:05;11.90;99.90
38866;DHT22;62686;48.984;8.394;2024-03-02T18:57:34;11.60;99.90
38866;DHT22;62686;48.984;8.394;2024-03-02T19:05:21;11.30;99.90
38866;DHT22;62686;48.984;8.394;2024-03-02T19:07:50;11.30;99.90
38866;DHT22;62686;48.984;8.394;2024-03-02T19:13:00;11.00;99.90
38866;DHT22;62686;48.984;8.394;2024-03-02T19:15:28;11.10;99.90
38866;DHT22;62686;48.984;8.394;2024-03-02T19:17:57;11.10;99.90
38866;DHT22;62686;48.984;8.394;2024-03-02T19:20:27;11.20;99.90
38866;DHT22;62686;48.984;8.394;2024-03-02T19:22:55;11.30;99.90
38866;DHT22;62686;48.984;8.394;2024-03-02T19:25:23;11.40;99.90
38866;DHT22;62686;48.984;8.394;2024-03-02T19:27:52;11.40;99.90
38866;DHT22;62686;48.984;8.394;2024-03-02T19:30:21;11.40;99.90
38866;DHT22;62686;48.984;8.394;2024-03-02T19:32:51;11.50;99.90
38866;DHT22;62686;48.984;8.394;2024-03-02T19:35:20;11.50;99.90
38866;DHT22;62686;48.984;8.394;2024-03-02T19:37:50;11.40;99.90
38866;DHT22;62686;48.984;8.394;2024-03-02T19:40:18;11.30;99.90
38866;DHT22;62686;48.984;8.394;2024-03-02T19:42:48;11.40;99.90
38866;DHT22;62686;48.984;8.394;2024-03-02T19:45:17;11.50;99.90
38866;DHT22;62686;48.984;8.394;2024-03-02T19:47:45;11.60;99.90
38866;DHT22;62686;48.984;8.394;2024-03-02T19:50:14;11.60;99.90
38866;DHT22;62686;48.984;8.394;2024-03-02T19:58:11;11.70;99.90
38866;DHT22;62686;48.984;8.394;2024-03-02T20:00:40;11.70;99.90
38866;DHT22;62686;48.984;8.394;2024-03-02T20:03:08;11.60;99.90
38866;DHT22;62686;48.984;8.394;2024-03-02T20:05:38;11.40;99.90
38866;DHT22;62686;48.984;8.394;2024-03-02T20:08:07;11.40;99.90
38866;DHT22;62686;48.984;8.394;2024-03-02T20:10:35;11.30;99.90
38866;DHT22;62686;48.984;8.394;2024-03-02T20:13:06;11.10;99.90
38866;DHT22;62686;48.984;8.394;2024-03-02T20:15:36;11.20;99.90
38866;DHT22;62686;48.984;8.394;2024-03-02T20:18:07;11.20;99.90
38866;DHT22;62686;48.984;8.394;2024-03-02T20:20:35;11.20;99.90
38866;DHT22;62686;48.984;8.394;2024-03-02T20:28:21;11.30;99.90
38866;DHT22;62686;48.984;8.394;2024-03-02T20:33:36;11.20;99.90
38866;DHT22;62686;48.984;8.394;2024-03-02T20:36:12;11.30;99.90
38866;DHT22;62686;48.984;8.394;2024-03-02T20:38:43;11.40;99.90
38866;DHT22;62686;48.984;8.394;2024-03-02T20:41:16;11.40;99.90
38866;DHT22;62686;48.984;8.394;2024-03-02T20:43:46;11.40;99.90
38866;DHT22;62686;48.984;8.394;2024-03-02T20:46:18;11.40;99.90
38866;DHT22;62686;48.984;8.394;2024-03-02T20:48:54;11.40;99.90
38866;DHT22;62686;48.984;8.394;2024-03-02T20:51:26;11.40;99.90
38866;DHT22;62686;48.984;8.394;2024-03-02T20:54:00;11.30;99.90
38866;DHT22;62686;48.984;8.394;2024-03-02T20:56:35;11.30;99.90
38866;DHT22;62686;48.984;8.394;2024-03-02T20:59:10;11.30;99.90
38866;DHT22;62686;48.984;8.394;2024-03-02T21:01:42;11.30;99.90
38866;DHT22;62686;48.984;8.394;2024-03-02T21:04:16;11.30;99.90
38866;DHT22;62686;48.984;8.394;2024-03-02T21:06:50;11.30;99.90
38866;DHT22;62686;48.984;8.394;2024-03-02T21:09:32;11.30;99.90
38866;DHT22;62686;48.984;8.394;2024-03-02T21:20:14;11.30;99.90
38866;DHT22;62686;48.984;8.394;2024-03-02T21:22:45;11.30;99.90
38866;DHT22;62686;48.984;8.394;2024-03-02T21:25:19;11.20;99.90
38866;DHT22;62686;48.984;8.394;2024-03-02T21:27:48;11.20;99.90
38866;DHT22;62686;48.984;8.394;2024-03-02T21:35:44;10.90;99.90
38866;DHT22;62686;48.984;8.394;2024-03-02T21:38:13;10.90;99.90
38866;DHT22;62686;48.984;8.394;2024-03-02T21:40:41;10.90;99.90
38866;DHT22;62686;48.984;8.394;2024-03-02T21:43:10;10.90;99.90
38866;DHT22;62686;48.984;8.394;2024-03-02T21:45:45;10.90;99.90
38866;DHT22;62686;48.984;8.394;2024-03-02T21:48:16;10.80;99.90
38866;DHT22;62686;48.984;8.394;2024-03-02T21:50:54;10.70;99.90
38866;DHT22;62686;48.984;8.394;2024-03-02T21:53:27;10.80;99.90
38866;DHT22;62686;48.984;8.394;2024-03-02T21:55:58;10.80;99.90
38866;DHT22;62686;48.984;8.394;2024-03-02T21:58:29;10.80;99.90
38866;DHT22;62686;48.984;8.394;2024-03-02T22:01:00;10.80;99.90
38866;DHT22;62686;48.984;8.394;2024-03-02T22:03:31;10.80;99.90
38866;DHT22;62686;48.984;8.394;2024-03-02T22:06:03;10.90;99.90
38866;DHT22;62686;48.984;8.394;2024-03-02T22:08:38;10.80;99.90
38866;DHT22;62686;48.984;8.394;2024-03-02T22:11:09;10.70;99.90
38866;DHT22;62686;48.984;8.394;2024-03-02T22:13:41;10.80;99.90
38866;DHT22;62686;48.984;8.394;2024-03-02T22:16:15;10.60;99.90
38866;DHT22;62686;48.984;8.394;2024-03-02T22:18:52;10.60;99.90
38866;DHT22;62686;48.984;8.394;2024-03-02T22:21:23;10.60;99.90
38866;DHT22;62686;48.984;8.394;2024-03-02T22:23:51;10.70;99.90
38866;DHT22;62686;48.984;8.394;2024-03-02T22:26:23;10.80;99.90
38866;DHT22;62686;48.984;8.394;2024-03-02T22:28:51;10.80;99.90
38866;DHT22;62686;48.984;8.394;2024-03-02T22:34:00;11.00;99.90
38866;DHT22;62686;48.984;8.394;2024-03-02T22:39:11;11.00;99.90
38866;DHT22;62686;48.984;8.394;2024-03-02T22:41:40;11.00;99.90
38866;DHT22;62686;48.984;8.394;2024-03-02T22:59:36;10.90;99.90
38866;DHT22;62686;48.984;8.394;2024-03-02T23:02:07;10.80;99.90
38866;DHT22;62686;48.984;8.394;2024-03-02T23:04:43;10.70;99.90
38866;DHT22;62686;48.984;8.394;2024-03-02T23:07:14;10.70;99.90
38866;DHT22;62686;48.984;8.394;2024-03-02T23:09:46;10.70;99.90
38866;DHT22;62686;48.984;8.394;2024-03-02T23:15:00;10.60;99.90
38866;DHT22;62686;48.984;8.394;2024-03-02T23:17:29;10.60;99.90
38866;DHT22;62686;48.984;8.394;2024-03-02T23:20:04;10.60;99.90
38866;DHT22;62686;48.984;8.394;2024-03-02T23:23:00;10.60;99.90
38866;DHT22;62686;48.984;8.394;2024-03-02T23:28:14;10.80;99.90
38866;DHT22;62686;48.984;8.394;2024-03-02T23:30:45;10.70;99.90
38866;DHT22;62686;48.984;8.394;2024-03-02T23:33:14;10.70;99.90
38866;DHT22;62686;48.984;8.394;2024-03-02T23:35:43;10.60;99.90
38866;DHT22;62686;48.984;8.394;2024-03-02T23:38:12;10.50;99.90
38866;DHT22;62686;48.984;8.394;2024-03-02T23:40:43;10.50;99.90
38866;DHT22;62686;48.984;8.394;2024-03-02T23:43:28;10.50;99.90
38866;DHT22;62686;48.984;8.394;2024-03-02T23:45:58;10.50;99.90
38866;DHT22;62686;48.984;8.394;2024-03-02T23:48:27;10.50;99.90
38866;DHT22;62686;48.984;8.394;2024-03-02T23:50:55;10.40;99.90
38866;DHT22;62686;48.984;8.394;2024-03-02T23:53:24;10.40;99.90
38866;DHT22;62686;48.984;8.394;2024-03-02T23:55:52;10.40;99.90
38866;DHT22;62686;48.984;8.394;2024-03-02T23:58:21;10.40;99.90
